createdAt,value
2017-12-23T00:00:27.718Z,97.50
2017-12-23T00:02:55.989Z,97.40
2017-12-23T00:05:24.352Z,97.00
2017-12-23T00:07:51.988Z,96.30
2017-12-23T00:10:19.470Z,96.40
2017-12-23T00:12:47.025Z,96.50
2017-12-23T00:15:14.573Z,96.50
2017-12-23T00:17:42.050Z,96.70
2017-12-23T00:20:09.566Z,96.60
2017-12-23T00:22:37.510Z,96.50
2017-12-23T00:25:05.393Z,96.40
2017-12-23T00:27:32.892Z,96.80
2017-12-23T00:30:01.947Z,96.90
2017-12-23T00:32:29.453Z,97.10
2017-12-23T00:34:57.744Z,97.50
2017-12-23T00:37:25.252Z,97.10
2017-12-23T00:39:52.744Z,97.40
2017-12-23T00:42:20.279Z,97.60
2017-12-23T00:44:47.785Z,97.70
2017-12-23T00:47:16.082Z,98.00
2017-12-23T00:49:44.379Z,97.90
2017-12-23T00:52:11.876Z,98.00
2017-12-23T00:54:39.392Z,98.00
2017-12-23T00:57:06.906Z,98.10
2017-12-23T00:59:34.431Z,98.10
2017-12-23T01:02:01.930Z,98.20
2017-12-23T01:04:30.231Z,98.50
2017-12-23T01:06:57.743Z,98.30
2017-12-23T01:09:25.249Z,98.30
2017-12-23T01:11:52.765Z,98.40
2017-12-23T01:14:20.421Z,98.40
2017-12-23T01:16:49.461Z,98.40
2017-12-23T01:19:17.060Z,98.30
2017-12-23T01:21:45.417Z,98.30
2017-12-23T01:24:12.937Z,98.30
2017-12-23T01:26:40.474Z,98.30
2017-12-23T01:29:07.988Z,98.10
2017-12-23T01:31:35.510Z,98.00
2017-12-23T01:34:03.112Z,98.00
2017-12-23T01:36:31.125Z,98.00
2017-12-23T01:38:59.061Z,98.10
2017-12-23T01:41:26.566Z,98.10
2017-12-23T01:43:54.074Z,98.10
2017-12-23T01:46:21.594Z,98.20
2017-12-23T01:48:49.113Z,98.30
2017-12-23T01:51:16.629Z,98.30
2017-12-23T01:53:44.912Z,98.40
2017-12-23T01:56:13.201Z,98.30
2017-12-23T01:58:40.738Z,98.00
2017-12-23T02:01:08.246Z,97.90
2017-12-23T02:03:35.752Z,97.90
2017-12-23T02:06:03.270Z,97.90
2017-12-23T02:08:30.782Z,97.90
2017-12-23T02:10:59.062Z,98.20
2017-12-23T02:13:27.340Z,98.10
2017-12-23T02:15:54.881Z,98.10
2017-12-23T02:18:22.377Z,97.90
2017-12-23T02:20:49.890Z,97.90
2017-12-23T02:23:17.414Z,98.00
2017-12-23T02:25:45.695Z,98.00
2017-12-23T02:28:13.228Z,98.10
2017-12-23T02:30:41.497Z,98.40
2017-12-23T02:33:09.769Z,98.30
2017-12-23T02:35:38.050Z,98.30
2017-12-23T02:38:06.321Z,98.20
2017-12-23T02:40:33.837Z,98.00
2017-12-23T02:43:01.350Z,98.00
2017-12-23T02:45:28.874Z,98.00
2017-12-23T02:47:56.380Z,97.90
2017-12-23T02:50:23.918Z,97.90
2017-12-23T02:52:51.406Z,97.70
2017-12-23T02:55:18.920Z,97.60
2017-12-23T02:57:46.448Z,97.70
2017-12-23T03:00:14.351Z,97.70
2017-12-23T03:02:41.855Z,97.50
2017-12-23T03:05:10.128Z,97.50
2017-12-23T03:07:37.649Z,97.50
2017-12-23T03:10:06.487Z,97.50
2017-12-23T03:12:33.980Z,97.40
2017-12-23T03:15:01.496Z,97.50
2017-12-23T03:17:29.064Z,97.70
2017-12-23T03:19:57.298Z,98.10
2017-12-23T03:22:24.798Z,97.90
2017-12-23T03:24:52.317Z,98.00
2017-12-23T03:27:20.208Z,98.00
2017-12-23T03:29:47.717Z,98.10
2017-12-23T03:32:15.225Z,98.10
2017-12-23T03:34:42.745Z,98.10
2017-12-23T03:37:10.266Z,98.20
2017-12-23T03:39:37.761Z,98.30
2017-12-23T03:42:05.278Z,98.30
2017-12-23T03:44:32.809Z,98.20
2017-12-23T03:47:01.069Z,98.20
2017-12-23T03:49:29.337Z,98.40
2017-12-23T03:51:56.837Z,98.10
2017-12-23T03:54:24.345Z,98.20
2017-12-23T03:56:51.849Z,98.30
2017-12-23T03:59:19.360Z,98.30
2017-12-23T04:01:46.856Z,98.30
2017-12-23T04:04:14.864Z,98.30
2017-12-23T04:06:42.381Z,98.30
2017-12-23T04:09:10.744Z,98.20
2017-12-23T04:11:38.256Z,98.10
2017-12-23T04:14:05.780Z,98.10
2017-12-23T04:16:33.286Z,98.30
2017-12-23T04:19:00.784Z,98.10
2017-12-23T04:21:29.085Z,98.30
2017-12-23T04:23:56.584Z,98.00
2017-12-23T04:26:24.083Z,98.00
2017-12-23T04:28:51.596Z,98.00
2017-12-23T04:31:19.098Z,98.00
2017-12-23T04:33:46.618Z,98.10
2017-12-23T04:36:14.125Z,98.10
2017-12-23T04:38:42.030Z,98.10
2017-12-23T04:41:09.561Z,98.20
2017-12-23T04:43:37.065Z,98.20
2017-12-23T04:46:04.961Z,98.20
2017-12-23T04:48:33.240Z,98.50
2017-12-23T04:51:00.760Z,98.50
2017-12-23T04:53:28.328Z,98.50
2017-12-23T04:55:55.850Z,98.40
2017-12-23T04:58:23.340Z,98.30
2017-12-23T05:00:50.888Z,98.20
2017-12-23T05:03:18.386Z,98.00
2017-12-23T05:05:46.685Z,98.10
2017-12-23T05:08:14.185Z,98.10
2017-12-23T05:10:41.682Z,98.10
2017-12-23T05:13:09.954Z,98.20
2017-12-23T05:15:37.458Z,98.20
2017-12-23T05:18:04.965Z,98.40
2017-12-23T05:20:32.485Z,98.00
2017-12-23T05:22:59.984Z,97.90
2017-12-23T05:25:28.257Z,97.80
2017-12-23T05:27:56.542Z,97.90
2017-12-23T05:30:24.800Z,97.80
2017-12-23T05:32:52.313Z,97.80
2017-12-23T05:35:19.820Z,97.50
2017-12-23T05:37:48.082Z,97.50
2017-12-23T05:40:15.592Z,97.50
2017-12-23T05:42:43.104Z,97.30
2017-12-23T05:45:10.602Z,97.40
2017-12-23T05:47:38.162Z,97.50
2017-12-23T05:50:05.629Z,97.50
2017-12-23T05:52:33.140Z,98.20
2017-12-23T05:55:00.676Z,97.40
2017-12-23T05:57:28.173Z,97.50
2017-12-23T05:59:56.444Z,97.50
2017-12-23T06:02:24.745Z,97.50
2017-12-23T06:04:52.249Z,97.50
2017-12-23T06:07:20.516Z,97.40
2017-12-23T06:09:48.035Z,97.40
2017-12-23T06:12:15.526Z,97.20
2017-12-23T06:14:43.047Z,97.30
2017-12-23T06:17:10.647Z,97.10
2017-12-23T06:19:38.164Z,97.20
2017-12-23T06:22:06.454Z,97.50
2017-12-23T06:24:34.056Z,97.00
2017-12-23T06:27:01.560Z,97.10
2017-12-23T06:29:29.070Z,97.20
2017-12-23T06:31:57.347Z,97.20
2017-12-23T06:34:25.240Z,97.10
2017-12-23T06:36:53.156Z,97.10
2017-12-23T06:39:20.652Z,97.20
2017-12-23T06:41:48.173Z,97.10
2017-12-23T06:44:15.673Z,97.30
2017-12-23T06:46:43.190Z,97.40
2017-12-23T06:49:10.705Z,97.50
2017-12-23T06:51:39.056Z,97.70
2017-12-23T06:54:06.560Z,97.90
2017-12-23T06:56:34.829Z,98.10
2017-12-23T06:59:03.108Z,97.70
2017-12-23T07:01:31.406Z,97.50
2017-12-23T07:04:00.042Z,97.10
2017-12-23T07:06:27.544Z,97.00
2017-12-23T07:08:55.056Z,97.20
2017-12-23T07:11:22.568Z,97.00
2017-12-23T07:13:50.062Z,96.90
2017-12-23T07:16:17.564Z,97.00
2017-12-23T07:18:45.062Z,97.00
2017-12-23T07:21:13.710Z,97.40
2017-12-23T07:23:41.206Z,97.30
2017-12-23T07:26:08.772Z,97.30
2017-12-23T07:28:36.296Z,97.40
2017-12-23T07:31:03.803Z,97.50
2017-12-23T07:33:31.304Z,97.50
2017-12-23T07:35:59.753Z,97.40
2017-12-23T07:38:27.232Z,97.50
2017-12-23T07:40:55.521Z,97.80
2017-12-23T07:45:52.324Z,97.50
2017-12-23T07:48:20.225Z,97.40
2017-12-23T07:50:47.770Z,97.60
2017-12-23T07:53:15.272Z,97.70
2017-12-23T07:55:43.609Z,97.90
2017-12-23T07:58:11.115Z,97.60
2017-12-23T08:00:39.441Z,97.80
2017-12-23T08:03:07.348Z,97.60
2017-12-23T08:05:34.877Z,97.60
2017-12-23T08:08:02.378Z,97.70
2017-12-23T08:10:30.817Z,98.00
2017-12-23T08:12:58.329Z,97.80
2017-12-23T08:15:26.660Z,98.00
2017-12-23T08:17:54.181Z,97.70
2017-12-23T08:20:22.473Z,97.70
2017-12-23T08:22:51.641Z,97.70
2017-12-23T08:25:19.912Z,97.90
2017-12-23T08:27:47.432Z,97.70
2017-12-23T08:30:15.097Z,97.70
2017-12-23T08:32:42.996Z,97.60
2017-12-23T08:35:10.496Z,97.60
2017-12-23T08:37:38.013Z,97.60
2017-12-23T08:40:05.509Z,97.50
2017-12-23T08:42:33.106Z,97.60
2017-12-23T08:45:00.666Z,97.50
2017-12-23T08:47:28.162Z,97.70
2017-12-23T08:49:56.496Z,97.90
2017-12-23T08:52:24.014Z,97.40
2017-12-23T08:54:52.329Z,97.40
2017-12-23T08:57:21.641Z,97.30
2017-12-23T08:59:49.536Z,97.30
2017-12-23T09:02:17.058Z,97.20
2017-12-23T09:04:44.614Z,97.30
2017-12-23T09:07:12.604Z,97.00
2017-12-23T09:09:40.108Z,96.80
2017-12-23T09:12:08.020Z,96.70
2017-12-23T09:14:35.681Z,96.90
2017-12-23T09:17:03.238Z,97.00
2017-12-23T09:19:30.797Z,96.70
2017-12-23T09:21:58.465Z,96.20
2017-12-23T09:24:26.443Z,96.30
2017-12-23T09:26:53.940Z,96.30
2017-12-23T09:29:21.858Z,96.60
2017-12-23T09:31:49.758Z,96.80
2017-12-23T09:34:17.257Z,96.50
2017-12-23T09:36:44.772Z,96.10
2017-12-23T09:39:12.277Z,95.90
2017-12-23T09:41:39.784Z,95.80
2017-12-23T09:44:07.296Z,95.80
2017-12-23T09:46:34.804Z,95.50
2017-12-23T09:49:02.337Z,95.60
2017-12-23T09:51:30.588Z,95.90
2017-12-23T09:53:58.105Z,96.30
2017-12-23T09:56:27.136Z,96.40
2017-12-23T09:58:55.063Z,96.00
2017-12-23T10:01:22.541Z,95.30
2017-12-23T10:03:50.078Z,95.10
2017-12-23T10:06:17.593Z,95.60
2017-12-23T10:08:45.120Z,95.40
2017-12-23T10:11:12.628Z,95.70
2017-12-23T10:13:40.887Z,95.60
2017-12-23T10:16:08.498Z,95.90
2017-12-23T10:18:35.992Z,95.70
2017-12-23T10:21:04.270Z,96.00
2017-12-23T10:23:32.567Z,95.90
2017-12-23T10:26:00.818Z,96.10
2017-12-23T10:28:29.096Z,96.10
2017-12-23T10:30:57.385Z,95.70
2017-12-23T10:33:24.905Z,95.50
2017-12-23T10:35:52.417Z,95.50
2017-12-23T10:38:20.702Z,96.30
2017-12-23T10:40:48.193Z,97.40
2017-12-23T10:43:15.707Z,95.80
2017-12-23T10:45:43.216Z,94.20
2017-12-23T10:48:10.730Z,92.80
2017-12-23T10:50:38.646Z,93.20
2017-12-23T10:53:06.911Z,93.90
2017-12-23T10:55:35.176Z,94.10
2017-12-23T10:58:03.077Z,93.70
2017-12-23T11:00:30.598Z,94.00
2017-12-23T11:02:58.100Z,93.00
2017-12-23T11:05:25.616Z,91.90
2017-12-23T11:07:53.125Z,92.90
2017-12-23T11:10:21.417Z,91.30
2017-12-23T11:12:48.927Z,91.90
2017-12-23T11:15:17.933Z,91.90
2017-12-23T11:17:45.472Z,92.70
2017-12-23T11:20:12.975Z,92.80
2017-12-23T11:22:41.237Z,93.10
2017-12-23T11:25:09.533Z,92.50
2017-12-23T11:27:37.797Z,93.10
2017-12-23T11:30:06.066Z,93.60
2017-12-23T11:32:33.969Z,93.40
2017-12-23T11:35:01.489Z,93.00
2017-12-23T11:37:28.991Z,91.70
2017-12-23T11:39:56.890Z,92.20
2017-12-23T11:42:24.527Z,92.20
2017-12-23T11:44:52.756Z,91.70
2017-12-23T11:47:20.267Z,91.60
2017-12-23T11:49:47.769Z,91.40
2017-12-23T11:52:15.723Z,91.20
2017-12-23T11:54:43.202Z,91.60
2017-12-23T11:57:11.101Z,91.60
2017-12-23T11:59:38.628Z,91.60
2017-12-23T12:02:06.253Z,91.10
2017-12-23T12:04:34.575Z,91.00
2017-12-23T12:07:02.037Z,90.60
2017-12-23T12:09:30.324Z,90.70
2017-12-23T12:11:58.724Z,90.40
2017-12-23T12:14:26.237Z,90.20
2017-12-23T12:16:53.750Z,89.50
2017-12-23T12:19:21.257Z,85.40
2017-12-23T12:21:48.768Z,84.80
2017-12-23T12:24:16.298Z,87.10
2017-12-23T12:26:44.561Z,86.80
2017-12-23T12:29:12.834Z,88.60
2017-12-23T12:31:41.112Z,89.70
2017-12-23T12:34:09.392Z,88.10
2017-12-23T12:36:37.653Z,90.00
2017-12-23T12:39:05.669Z,90.10
2017-12-23T12:41:33.573Z,89.50
2017-12-23T12:44:01.077Z,90.20
2017-12-23T12:46:29.360Z,89.90
2017-12-23T12:48:57.269Z,88.90
2017-12-23T12:51:24.788Z,87.90
2017-12-23T12:53:52.288Z,88.90
2017-12-23T12:56:20.570Z,87.90
2017-12-23T12:58:48.084Z,87.20
2017-12-23T13:01:15.637Z,88.40
2017-12-23T13:03:43.565Z,89.00
2017-12-23T13:06:11.055Z,88.10
2017-12-23T13:08:39.329Z,88.30
2017-12-23T13:11:07.602Z,89.30
2017-12-23T13:13:35.888Z,90.00
2017-12-23T13:16:04.153Z,90.40
2017-12-23T13:18:31.652Z,87.60
2017-12-23T13:20:59.173Z,88.10
2017-12-23T13:23:27.477Z,88.70
2017-12-23T13:25:55.199Z,89.10
2017-12-23T13:28:22.732Z,88.50
2017-12-23T13:30:50.268Z,88.30
2017-12-23T13:33:17.800Z,88.50
2017-12-23T13:35:46.068Z,89.60
2017-12-23T13:38:14.337Z,90.10
2017-12-23T13:40:41.851Z,89.80
2017-12-23T13:43:09.351Z,89.70
2017-12-23T13:45:36.872Z,88.20
2017-12-23T13:48:04.373Z,88.60
2017-12-23T13:50:31.874Z,88.30
2017-12-23T13:52:59.397Z,88.80
2017-12-23T13:55:27.673Z,89.20
2017-12-23T13:57:55.951Z,88.90
2017-12-23T14:00:24.224Z,89.90
2017-12-23T14:02:52.494Z,89.60
2017-12-23T14:05:19.997Z,88.80
2017-12-23T14:07:47.526Z,88.50
2017-12-23T14:10:15.834Z,90.30
2017-12-23T14:12:44.180Z,90.00
2017-12-23T14:15:12.562Z,90.70
2017-12-23T14:17:40.906Z,90.10
2017-12-23T14:20:08.433Z,90.10
2017-12-23T14:22:36.712Z,89.30
2017-12-23T14:25:04.212Z,88.90
2017-12-23T14:27:32.126Z,89.20
2017-12-23T14:29:59.625Z,89.40
2017-12-23T14:32:27.136Z,90.10
2017-12-23T14:34:54.669Z,90.00
2017-12-23T14:37:22.579Z,90.10
2017-12-23T14:39:50.080Z,90.40
2017-12-23T14:42:17.590Z,90.10
2017-12-23T14:44:45.914Z,89.90
2017-12-23T14:47:13.413Z,89.60
2017-12-23T14:49:41.697Z,90.30
2017-12-23T14:52:09.199Z,90.10
2017-12-23T14:54:36.716Z,90.10
2017-12-23T14:57:04.216Z,90.10
2017-12-23T14:59:31.708Z,90.30
2017-12-23T15:01:59.224Z,90.60
2017-12-23T15:04:26.818Z,90.60
2017-12-23T15:06:55.849Z,90.60
2017-12-23T15:09:23.345Z,90.90
2017-12-23T15:11:51.249Z,90.70
2017-12-23T15:14:19.536Z,90.90
2017-12-23T15:16:47.806Z,91.10
2017-12-23T15:19:15.311Z,91.10
2017-12-23T15:21:42.894Z,91.20
2017-12-23T15:24:10.391Z,91.00
2017-12-23T15:26:38.301Z,90.80
2017-12-23T15:29:05.800Z,91.00
2017-12-23T15:31:33.314Z,90.90
2017-12-23T15:34:00.818Z,91.30
2017-12-23T15:36:28.345Z,91.30
2017-12-23T15:38:56.606Z,91.40
2017-12-23T15:41:24.129Z,91.70
2017-12-23T15:43:52.033Z,92.10
2017-12-23T15:46:20.305Z,92.20
2017-12-23T15:48:47.820Z,92.30
2017-12-23T15:51:15.342Z,92.40
2017-12-23T15:53:42.860Z,92.60
2017-12-23T15:56:11.133Z,92.20
2017-12-23T15:58:39.397Z,92.20
2017-12-23T16:01:07.833Z,92.20
2017-12-23T16:03:35.328Z,92.20
2017-12-23T16:06:02.862Z,92.20
2017-12-23T16:08:30.417Z,92.00
2017-12-23T16:10:57.932Z,95.60
2017-12-23T16:13:25.637Z,94.10
2017-12-23T16:15:53.300Z,92.70
2017-12-23T16:18:20.809Z,90.10
2017-12-23T16:20:49.114Z,87.90
2017-12-23T16:23:16.694Z,87.90
2017-12-23T16:26:33.476Z,83.50
2017-12-23T16:29:01.009Z,86.00
2017-12-23T16:31:28.905Z,90.10
2017-12-23T16:33:56.409Z,90.70
2017-12-23T16:36:23.929Z,91.10
2017-12-23T16:38:51.434Z,91.80
2017-12-23T16:41:18.955Z,91.70
2017-12-23T16:43:46.473Z,91.70
2017-12-23T16:46:14.745Z,92.10
2017-12-23T16:48:42.255Z,92.10
2017-12-23T16:51:09.769Z,92.40
2017-12-23T16:53:38.037Z,92.30
2017-12-23T16:56:05.542Z,92.30
2017-12-23T16:58:33.053Z,92.10
2017-12-23T17:01:00.553Z,92.00
2017-12-23T17:03:28.070Z,92.40
2017-12-23T17:05:55.569Z,92.50
2017-12-23T17:08:23.065Z,92.50
2017-12-23T17:10:50.673Z,92.50
2017-12-23T17:13:18.121Z,92.10
2017-12-23T17:15:46.421Z,92.70
2017-12-23T17:18:14.742Z,92.40
2017-12-23T17:20:42.248Z,92.50
2017-12-23T17:23:10.541Z,92.60
2017-12-23T17:25:38.036Z,92.50
2017-12-23T17:28:05.552Z,92.50
2017-12-23T17:30:33.964Z,92.50
2017-12-23T17:33:01.485Z,92.40
2017-12-23T17:35:29.753Z,92.60
2017-12-23T17:37:58.041Z,92.70
2017-12-23T17:40:26.309Z,92.60
2017-12-23T17:42:53.828Z,92.30
2017-12-23T17:45:21.330Z,92.10
2017-12-23T17:47:49.619Z,92.30
2017-12-23T17:50:17.116Z,92.10
2017-12-23T17:52:44.701Z,92.70
2017-12-23T17:55:12.225Z,92.00
2017-12-23T17:57:39.733Z,92.10
2017-12-23T18:00:07.654Z,92.00
2017-12-23T18:02:35.166Z,92.00
2017-12-23T18:05:03.056Z,92.10
2017-12-23T18:07:30.578Z,92.00
2017-12-23T18:09:58.474Z,92.00
2017-12-23T18:12:26.745Z,92.40
2017-12-23T18:14:55.029Z,92.10
2017-12-23T18:17:22.923Z,92.10
2017-12-23T18:19:50.413Z,92.30
2017-12-23T18:22:17.925Z,91.90
2017-12-23T18:24:45.437Z,92.00
2017-12-23T18:27:12.940Z,91.90
2017-12-23T18:29:40.465Z,91.90
2017-12-23T18:32:07.968Z,92.00
2017-12-23T18:34:35.861Z,92.10
2017-12-23T18:37:03.378Z,92.40
2017-12-23T18:39:31.288Z,92.00
2017-12-23T18:41:58.792Z,92.30
2017-12-23T18:44:26.305Z,91.60
2017-12-23T18:46:54.209Z,91.60
2017-12-23T18:49:21.717Z,91.70
2017-12-23T18:51:49.241Z,91.50
2017-12-23T18:54:17.518Z,91.90
2017-12-23T18:56:45.022Z,91.70
2017-12-23T18:59:12.540Z,92.00
2017-12-23T19:01:40.811Z,92.00
2017-12-23T19:04:08.712Z,91.60
2017-12-23T19:06:36.212Z,91.70
2017-12-23T19:09:03.749Z,91.70
2017-12-23T19:11:31.256Z,96.40
2017-12-23T19:13:59.153Z,93.90
2017-12-23T19:16:32.585Z,90.90
2017-12-23T19:19:00.080Z,83.60
2017-12-23T19:21:28.350Z,86.10
2017-12-23T19:23:55.864Z,86.10
2017-12-23T19:26:23.365Z,88.70
2017-12-23T19:28:50.884Z,91.00
2017-12-23T19:31:18.396Z,91.30
2017-12-23T19:33:46.685Z,91.90
2017-12-23T19:36:14.590Z,91.80
2017-12-23T19:38:42.496Z,91.90
2017-12-23T19:41:10.768Z,92.10
2017-12-23T19:43:38.293Z,91.90
2017-12-23T19:46:06.565Z,92.00
2017-12-23T19:48:34.060Z,92.10
2017-12-23T19:51:02.330Z,92.10
2017-12-23T19:53:30.686Z,92.10
2017-12-23T19:55:59.477Z,92.30
2017-12-23T19:58:27.775Z,92.00
2017-12-23T20:00:55.265Z,92.00
2017-12-23T20:03:23.197Z,92.00
2017-12-23T20:05:51.105Z,92.20
2017-12-23T20:08:19.397Z,92.10
2017-12-23T20:10:47.696Z,92.00
2017-12-23T20:13:15.625Z,92.10
2017-12-23T20:15:44.069Z,92.10
2017-12-23T20:18:11.646Z,92.00
2017-12-23T20:20:39.928Z,92.10
2017-12-23T20:23:08.192Z,92.30
2017-12-23T20:25:36.500Z,92.00
2017-12-23T20:28:04.829Z,92.20
2017-12-23T20:30:33.152Z,92.00
2017-12-23T20:33:01.546Z,91.90
2017-12-23T20:35:29.576Z,92.10
2017-12-23T20:37:57.877Z,92.10
2017-12-23T20:40:25.795Z,91.90
2017-12-23T20:42:54.103Z,92.00
2017-12-23T20:45:22.065Z,91.90
2017-12-23T20:47:50.350Z,92.00
2017-12-23T20:50:18.660Z,92.00
2017-12-23T20:52:46.181Z,91.90
2017-12-23T20:55:14.469Z,91.90
2017-12-23T20:57:42.766Z,92.00
2017-12-23T21:00:10.280Z,91.40
2017-12-23T21:02:37.825Z,91.40
2017-12-23T21:05:06.110Z,91.70
2017-12-23T21:07:35.152Z,91.90
2017-12-23T21:10:02.693Z,91.40
2017-12-23T21:12:30.734Z,91.50
2017-12-23T21:14:59.216Z,91.70
2017-12-23T21:17:27.145Z,91.70
2017-12-23T21:19:55.565Z,91.70
2017-12-23T21:22:23.917Z,91.90
2017-12-23T21:24:51.821Z,91.70
2017-12-23T21:27:20.212Z,91.80
2017-12-23T21:29:48.518Z,91.90
2017-12-23T21:32:17.565Z,92.30
2017-12-23T21:34:45.098Z,91.70
2017-12-23T21:37:13.061Z,91.70
2017-12-23T21:39:41.350Z,91.60
2017-12-23T21:42:10.436Z,91.70
2017-12-23T21:44:38.029Z,91.50
2017-12-23T21:47:05.954Z,91.30
2017-12-23T21:49:33.965Z,91.00
2017-12-23T21:52:01.898Z,90.90
2017-12-23T21:54:29.877Z,91.10
2017-12-23T21:56:57.521Z,91.10
2017-12-23T21:59:25.045Z,90.90
2017-12-23T22:01:52.954Z,90.90
2017-12-23T22:04:20.472Z,90.90
2017-12-23T22:06:48.110Z,90.70
2017-12-23T22:09:15.665Z,90.70
2017-12-23T22:11:44.045Z,90.90
2017-12-23T22:14:11.936Z,90.50
2017-12-23T22:16:39.568Z,90.70
2017-12-23T22:19:08.260Z,90.90
2017-12-23T22:21:36.168Z,90.60
2017-12-23T22:24:03.692Z,90.40
2017-12-23T22:26:31.617Z,90.30
2017-12-23T22:28:59.525Z,90.30
2017-12-23T22:31:27.424Z,89.90
2017-12-23T22:33:55.705Z,90.00
2017-12-23T22:36:24.041Z,90.20
2017-12-23T22:38:51.629Z,90.40
2017-12-23T22:41:20.652Z,90.80
2017-12-23T22:43:48.579Z,90.70
2017-12-23T22:46:16.472Z,90.20
2017-12-23T22:48:44.749Z,90.40
2017-12-23T22:51:13.907Z,90.40
2017-12-23T22:53:42.136Z,90.60
2017-12-23T22:56:10.400Z,90.60
2017-12-23T22:58:38.333Z,90.30
2017-12-23T23:01:05.893Z,90.20
2017-12-23T23:03:33.412Z,90.40
2017-12-23T23:06:01.034Z,90.50
2017-12-23T23:08:28.598Z,90.20
2017-12-23T23:10:56.104Z,90.30
2017-12-23T23:13:23.708Z,90.50
2017-12-23T23:15:51.258Z,90.60
2017-12-23T23:18:18.846Z,90.50
2017-12-23T23:20:46.361Z,90.30
2017-12-23T23:23:13.968Z,90.40
2017-12-23T23:25:41.483Z,89.80
2017-12-23T23:28:09.065Z,89.10
2017-12-23T23:30:36.576Z,89.80
2017-12-23T23:33:04.282Z,89.80
2017-12-23T23:35:31.850Z,89.80
2017-12-23T23:37:59.359Z,89.80
2017-12-23T23:40:26.885Z,89.80
2017-12-23T23:42:54.417Z,89.80
2017-12-23T23:45:21.980Z,89.80
2017-12-23T23:47:49.497Z,89.20
2017-12-23T23:50:17.507Z,88.90
2017-12-23T23:52:45.485Z,88.50
2017-12-23T23:55:12.996Z,88.80
2017-12-23T23:57:40.524Z,89.30
